AREA preflight bulletin
Updated "live" 15 Dec 2018, 22:37

back to the map




METAR og TAF


ILULISSAT
  AKTUEL BGJN 152220Z AUTO 10015KT 9999NDV BKN200/// M04/M12 Q0992=
  TAF 9 timer BGJN 152100Z 1521/1522 CNL=

AASIAAT
  AKTUEL BGAA 152220Z AUTO 16009KT 9999NDV BKN210/// M05/M09 Q0991=
  TAF 9 timer BGAA 152003Z 1520/1521 CNL=

UUMMANNAQ/QAARSUT
  AKTUEL BGUQ 152150Z AUTO 14005KT 110V180 9999NDV BKN220/// M09/M09 Q0991=
  TAF 9 timer BGUQ 151530Z 1515/1521 CNL=

NUUK
  AKTUEL BGGH 152150Z 06008KT 9999 FEW007 M05/M06 Q0990=
  TAF 9 timer BGGH 151401Z 1515/1521 14008KT 9999 FEW020 SCT045 PROB40 1515/1521 VRB05KT BKN020=

KANGERLUSSUAQ
  AKTUEL BGSF 152220Z AUTO 06005KT 9999NDV NCD M23/M25 Q0993=
  TAF 24 timer BGSF 151100Z 1512/1524 06007KT 9999 FEW100=

QEQERTARSUAQ
  AKTUEL

QASIGIANNGUIT
  AKTUEL BGCH 152220Z AUTO 22007KT //// ///////// M05/M09 Q0992=


SIGMETS:

SONDRESTROM FIR
  SIGMET BGGL SIGMET 2 VALID 152005/160005 BGSF- BGGL NUUK FIR SEV TURB FCST AT 2005Z WI N6928 W02303 - N6949 W02403 - N7027 W02217 - N7045 W02216 - N7045 W02116 - N7001 W02141 - N6928 W02303 SFC/FL130 STNR WKN=

SNOWTAM:

ICAO
BGJN (ILULISSAT)

valid from:
1812151053

Notam_id:
0113

SNOWTAM 0113 A) BGJN B) 12151053 C) 07 F) 38/38/38 G) 3/3/3 H) 5/5/5 N) 348/GOOD R) 348/POOR T) RWY CONTAMINATION 100 PERCENT 1MM RIME AND 10 PERCENT 2MM COMPACTED SNOW - MEASURED FRICTION COEFFICIENTS 51/53/55 TAP


ICAO
BGAA (AASIAAT)

valid from:
1812151236

Notam_id:
0110

SNOWTAM 0110 A) BGAA B) 12151236 C) 11 F) 37/37/37 G) 3/3/3 H) 5/5/5 N) 3478/GOOD R) 3478/MEDIUM T) RWY CONTAMINATION 50 PERCENT 1MM RIME AND 10 PERCENT 2MM ICE - MEASURED FRICTION COEFFICIENTS 81/77/73 TAP - SWEEPING IN PROGRESS


ICAO
BGGH (NUUK)

valid from:
1812152150

Notam_id:
0256

SNOWTAM 0256 A) BGGH B) 12152150 C) 05 F) 13/13/13 G) 1/1/1 H) 3/3/3 N) 378/POOR R) 38/POOR T) RWY CONTAMINATION 50 PERCENT DAMP AND 100 PERCENT RIME - MEASURED FRICTION COEFFICIENT 34/32/31 SKH


ICAO
BGSF (KANGERLUSSUAQ)

valid from:
1812152140

Notam_id:
0138

SNOWTAM 0138 A) BGSF B) 12152140 C) 09 F) NIL/NIL/3 H) 5/5/5 N) A/8/GOOD B/4/GOOD C D/48/GOOD R) N/8/GOOD E/48/GOOD W/487/MEDIUM HELIPAD/48/POOR T) MEASURED FRICTION COEFFICIENTS 71/82/86 TAP, RWY CONTAMINATION RIME OR FROST COVERED



NOTAM/SNOWTAM for operationel use has to be confirmed with the
nearest AIS Briefing Office prior to a flight.

ICAO
BGJN (ILULISSAT)

FIR
BGGL

Notam_id:
BGB0904/18

valid from:
1812021150

E) EVERY SECOND APCH LIGHT RWY 07/25 OUT OF SERVICE.

valid to:
1812312359




ICAO
BGAA (AASIAAT)

FIR
BGGL

Notam_id:
BGA0269/17

valid from:
1706081136

D) DAILY 1100-1115 2300-2315


E) ASCENT OR WEATHER BALLOON TAKES PLACE TWICE A DAY 1100-1115 AND 2300-2315. POSN 684201N0525105W LOCATED WEST OF THE AIRPORT AT A DISTANCE OF APPROX 3 KM. THE BALLOON CAN RISE TO A HEIGHT OF UP TO 35 KM. REF AIP GREENLAND AD 2 - BGAA - 4. F) SFC G) FL999

valid to:
PERM




ICAO
BGUQ (UUMMANNAQ/QAARSUT)

FIR
BGGL

Notam_id:
BGB0926/18

valid from:
1812121147

E) SEA RESCUE NOT AVAILABLE DUE TO ICE.

valid to:
1901031600




ICAO
BGUQ (UUMMANNAQ/QAARSUT)

FIR
BGGL

Notam_id:
BGB0925/18

valid from:
1812111314

E) FIRE AND RESCUE LIMITED. CRASHTENDER FOAM CAPACITY REDUCED.

valid to:
1901031600




ICAO
BGGL (SONDRESTROM FIR)

FIR
BGGL

Notam_id:
BGA0637/18

valid from:
1812141634

E) NUUK INFORMATION FREQ 121.300 MHZ PSN 610830N0482218W (ARSUUTAA) TRANSMITTER U/S.

valid to:
1812211900




ICAO
BGGL (SONDRESTROM FIR)

FIR
BGGL

Notam_id:
BGA0619/18

valid from:
1812010606

E) CHECKLIST YEAR=2017 0269 YEAR=2018 0199 0445 0538 0542 0543 0572 0585 0586 0611 0615 0616 0617 0618 LATEST PUBLICATIONS AIP AIRAC AMDT IFR 010/2018 EFFECTIVE DATE 06 DEC 18 AIP AMDT IFR 003/2018 EFFECTIVE DATE 15 MAR 18 AIP SUP IFR 006/2018 EFFECTIVE DATE 18 JUN 18 AIC IFR A003/2018 EFFECTIVE DATE 29 AUG 18

valid to:
1901010606EST


Replacing:
BGA0554/18

ICAO
BGGL (SONDRESTROM FIR)

FIR
BGGL

Notam_id:
BGB0899/18

valid from:
1812010607

E) CHECKLIST YEAR=2017 0740 0930 YEAR=2018 0631 0786 0806 0808 0811 0855 0857 0875 0876 0877 0888 LATEST PUBLICATIONS AIP AIRAC AMDT IFR 010/2018 EFFECTIVE DATE 06 DEC 18 AIP AMDT IFR 003/2018 EFFECTIVE DATE 15 MAR 18 AIP SUP IFR 006/2018 EFFECTIVE DATE 18 JUN 18 AIC IFR A003/2018 EFFECTIVE DATE 29 AUG 18

valid to:
1901010607EST


Replacing:
BGB0856/18

ICAO
BGGL (SONDRESTROM FIR)

FIR
BGGL

Notam_id:
BGC0070/18

valid from:
1812010608

E) CHECKLIST YEAR=2018 0069 LATEST PUBLICATIONS AIP AIRAC AMDT IFR 010/2018 EFFECTIVE DATE 06 DEC 18 AIP AMDT IFR 003/2018 EFFECTIVE DATE 15 MAR 18 AIP SUP IFR 006/2018 EFFECTIVE DATE 18 JUN 18 AIC IFR A003/2018 EFFECTIVE DATE 29 AUG 18

valid to:
1901010608EST


Replacing:
BGC0068/18

ICAO
BGGL (SONDRESTROM FIR)

FIR
BGGL

Notam_id:
BGB0950/18

valid from:
1812151200

E) THE FIRING EXERCISES TAKES PLACE NEAR COOK ISLAND BY NUUK. AREA BOUNDED BY: 6402N05233W 6402N05318W 6342N05318W 6342N05233W F) SFC G) 6500FT AGL

valid to:
1812160000




ICAO
BGGL (SONDRESTROM FIR)

FIR
BGGL

Notam_id:
BGA0625/18

valid from:
1812071341

E) NUUK INFORMATION FRQ 5526 KHZ PSN 6534N03707E (KULUSUK) OUT OF SERVICE

valid to:
1902071000




ICAO
BGGL (SONDRESTROM FIR)

FIR
BGGL

Notam_id:
BGA0572/18

valid from:
1901030000

E) AIP AIRAC AMDT EFFECTIVE DATE 03 JAN 2019: NIL

valid to:
1901162359




ICAO
BGGL (SONDRESTROM FIR)

FIR
BGGL

Notam_id:
BGB0942/18

valid from:
1901020700

D) DAILY 0700-1200


E) DUE TO LAUNCHING OF SCIENTIFIC ROCKET IN NORWAY, DEBRIS IS EXPECTED. TEMPORARY DANGER AREA ACTIVATED WITHIN BGGL FIR, LATERAL LIMITS: 880000N0300000E 820000N0300000E 820000N0000000E 813000N0000000E 813911N0023738W 834819N0171645W 862956N0234132W 881105N0241616E. F) SFC G) FL195

valid to:
1901171200




ICAO
BGGL (SONDRESTROM FIR)

FIR
BGGL

Notam_id:
BGA0633/18

valid from:
1901310000

E) TRIGGER NOTAM - PERM AIP AIRAC AMDT 01/19 WEF 31 JAN 2019. MAGNETIC BEARING UPDATED ON ATS ROUTES W21, W22, W23, W24, W25,W26, W27, W28, W29, W30, W31, W36, W37, W47, W51, W57, W60 AND W65.

valid to:
1902132359




ICAO
BGGL (SONDRESTROM FIR)

FIR
BGGL

Notam_id:
BGA0542/18

valid from:
1812060000

E) TRIGGER NOTAM - PERM AIP AIRAC AMDT 10/18 WEF 06 DEC 2018. SUNRISE/SUNSET TABLES UPDATED.

valid to:
1812192359




ICAO
BGGL (SONDRESTROM FIR)

FIR
BGGL

Notam_id:
BGA0199/18

valid from:
1805310935

E) GREENLAND AND ADJACENT WATERS ARE CONSIDERED HOSTILE AREAS BY THE CIVIL AVIATION AUTHORITY (TBST). THREE MAJOR REASONS CONTRIBUTE TO DEFINING THE AREA AS HOSTILE: A SAFE FORCED LANDING CANNOT BE ACCOMPLISHED BECAUSE THE SURFACE IS INADEQUATE. THE HELICOPTER OCCUPANTS CANNOT BE ADEQUATELY PROTECTED FROM THE ELEMENTS. SEARCH AND RESCUE RESPONSE/CAPABILITY ARE NOT PROVIDED CONSISTENT WITH ANTICIPATED EXPOSURE.

valid to:
PERM




ICAO
BGGH (NUUK)

FIR
BGGL

Notam_id:
BGB0786/18

valid from:
1810011932

E) BGGH AFIS FREQ 119.100 MHZ NO COVERAGE IN SECTOR BETWEEN 060 DEG MAG AND 210 DEG MAG BELOW FL100.

valid to:
1901311900EST


Replacing:
BGB0781/18

ICAO
BGGH (NUUK)

FIR
BGGL

Notam_id:
BGB0930/17

valid from:
1712181907

E) ERROR IN CHART FOR RNAV (GNSS) APPROACH RWY 23. WITH REF AIP GREENLAND AD 2-BGGH RNAV (GNSS) RWY 23-1. NEW OCA(H) LNAV/VNAV CLIMB 2.5 PERCENT CAT A TO READ 1310 (1029) INSTEAD OF 1230. NEW OCA(H) LNAV/VNAV CLIMB 2.5 PERCENT CAT B TO READ 1340 (1059) INSTEAD OF 1250. NEW OCA(H) LNAV/VNAV CLIMB 5.0 PERCENT CAT A TO READ 1300 (1019) INSTEAD OF 1070. NEW OCA(H) LNAV/VNAV CLIMB 5.0 PERCENT CAT B TO READ 1320 (1039) INSTEAD OF 1110. NEW OCA(H) LNAV CLIMB 5.0 PERCENT CAT A TO READ 1150 (869) IN-STEAD OF 1130. NEW OCA(H) LNAV CLIMB 5.0 PERCENT CAT B TO READ 1240 (959) INSTEAD OF 1230.

valid to:
PERM




ICAO
BGGH (NUUK)

FIR
BGGL

Notam_id:
BGB0808/18

valid from:
1810111130

E) CRANE RAISED AT PSN 641124N0514021W (AIR GREENLAND HANGAR AREA) TOP 82FT AGL

valid to:
1812201900EST




ICAO
BGSF (KANGERLUSSUAQ)

FIR
BGGL

Notam_id:
BGA0624/18

valid from:
1812031748

E) TWY D CLOSED DUE ICE.

valid to:
1812311900EST


Replacing:
BGA0616/18

ICAO
BGSF (KANGERLUSSUAQ)

FIR
BGGL

Notam_id:
BGA0623/18

valid from:
1812031747

E) APRON WEST CLOSED DUE TO ICE.

valid to:
1812311900EST


Replacing:
BGA0615/18

ICAO
BGSF (KANGERLUSSUAQ)

FIR
BGGL

Notam_id:
BGA0634/18

valid from:
1901310000

E) TRIGGER NOTAM - PERM AIP AIRAC AMDT 01/19 WEF 31 JAN 2019. E-MAIL CHANGED.

valid to:
1902132359




ICAO
BGSF (KANGERLUSSUAQ)

FIR
BGGL

Notam_id:
BGA0445/18

valid from:
1809131554

E) BGSF FBO E-MAIL ADDRESS: BGSF(AT)MIT.GL REF AIP GRL/AD 2 - BGSF, GEN 3.3 - 2 AND GEN 3.4 - 3.

valid to:
PERM





Copyright Naviair   2003-2016